createdAt,value
2023-04-29T00:02:30.442Z,66.40
2023-04-29T00:05:00.810Z,66.30
2023-04-29T00:07:29.507Z,66.30
2023-04-29T00:09:58.479Z,67.20
2023-04-29T00:12:28.073Z,66.20
2023-04-29T00:14:56.472Z,66.20
2023-04-29T00:17:26.347Z,66.20
2023-04-29T00:19:55.128Z,66.30
2023-04-29T00:22:23.833Z,66.30
2023-04-29T00:24:53.148Z,66.30
2023-04-29T00:27:21.545Z,66.30
2023-04-29T00:29:49.887Z,66.20
2023-04-29T00:32:18.456Z,66.20
2023-04-29T00:34:48.460Z,66.20
2023-04-29T00:37:17.213Z,66.10
2023-04-29T00:39:45.633Z,66.00
2023-04-29T00:42:14.200Z,66.00
2023-04-29T00:44:42.525Z,66.10
2023-04-29T00:47:11.885Z,66.00
2023-04-29T00:49:41.062Z,66.00
2023-04-29T00:52:14.007Z,66.00
2023-04-29T00:54:43.255Z,66.00
2023-04-29T00:57:12.213Z,66.00
2023-04-29T00:59:41.147Z,66.00
2023-04-29T01:02:09.922Z,66.00
2023-04-29T01:04:38.523Z,66.00
2023-04-29T01:07:17.063Z,65.90
2023-04-29T01:10:03.910Z,66.20
2023-04-29T01:12:40.759Z,66.10
2023-04-29T01:15:19.749Z,66.00
2023-04-29T01:17:57.571Z,66.00
2023-04-29T01:20:27.215Z,66.00
2023-04-29T01:22:57.059Z,66.00
2023-04-29T01:25:28.170Z,66.00
2023-04-29T01:28:44.669Z,66.00
2023-04-29T01:31:21.222Z,66.10
2023-04-29T01:34:09.821Z,66.10
2023-04-29T01:36:50.171Z,66.10
2023-04-29T01:39:32.919Z,66.10
2023-04-29T01:42:22.397Z,66.30
2023-04-29T01:44:52.732Z,66.20
2023-04-29T01:47:23.659Z,66.00
2023-04-29T01:49:55.214Z,66.20
2023-04-29T01:52:24.341Z,66.30
2023-04-29T01:54:57.154Z,66.40
2023-04-29T01:57:28.674Z,67.20
2023-04-29T02:00:13.369Z,66.60
2023-04-29T02:02:42.024Z,66.50
2023-04-29T02:05:21.524Z,66.60
2023-04-29T02:07:56.597Z,66.70
2023-04-29T02:10:25.102Z,67.50
2023-04-29T02:13:04.653Z,66.70
2023-04-29T02:15:33.111Z,66.70
2023-04-29T02:18:01.804Z,66.60
2023-04-29T02:20:30.396Z,66.70
2023-04-29T02:22:58.980Z,66.60
2023-04-29T02:25:27.391Z,66.70
2023-04-29T02:27:55.672Z,66.70
2023-04-29T02:30:25.575Z,66.70
2023-04-29T02:32:54.525Z,66.60
2023-04-29T02:35:23.047Z,66.50
2023-04-29T02:37:51.450Z,66.40
2023-04-29T02:40:20.237Z,67.30
2023-04-29T02:42:48.610Z,66.30
2023-04-29T02:45:17.464Z,66.40
2023-04-29T02:47:47.780Z,66.50
2023-04-29T02:50:16.755Z,66.40
2023-04-29T02:52:45.193Z,66.50
2023-04-29T02:55:13.854Z,66.40
2023-04-29T02:57:43.234Z,66.40
2023-04-29T03:00:13.005Z,66.50
2023-04-29T03:02:41.750Z,66.60
2023-04-29T03:05:12.114Z,66.70
2023-04-29T03:07:40.497Z,66.90
2023-04-29T03:10:11.594Z,67.00
2023-04-29T03:12:41.014Z,67.00
2023-04-29T03:15:10.751Z,67.00
2023-04-29T03:17:39.624Z,67.10
2023-04-29T03:20:12.045Z,67.00
2023-04-29T03:22:41.004Z,67.10
2023-04-29T03:25:10.972Z,67.00
2023-04-29T03:27:41.898Z,66.90
2023-04-29T03:30:12.278Z,66.90
2023-04-29T03:32:48.222Z,66.80
2023-04-29T03:35:18.108Z,66.70
2023-04-29T03:38:09.697Z,66.80
2023-04-29T03:40:39.924Z,66.70
2023-04-29T03:43:09.212Z,66.70
2023-04-29T03:45:38.175Z,66.80
2023-04-29T03:48:08.387Z,66.80
2023-04-29T03:50:38.904Z,66.80
2023-04-29T03:53:08.316Z,67.00
2023-04-29T03:55:36.811Z,67.00
2023-04-29T03:58:05.590Z,67.00
2023-04-29T04:00:34.766Z,67.00
2023-04-29T04:03:06.929Z,67.00
2023-04-29T04:05:38.731Z,67.00
2023-04-29T04:08:11.277Z,67.00
2023-04-29T04:10:48.633Z,66.90
2023-04-29T04:13:31.536Z,67.80
2023-04-29T04:16:00.201Z,67.00
2023-04-29T04:18:28.736Z,67.00
2023-04-29T04:20:59.578Z,67.00
2023-04-29T04:23:28.272Z,67.00
2023-04-29T04:25:58.255Z,67.00
2023-04-29T04:28:53.125Z,67.00
2023-04-29T04:31:31.244Z,66.80
2023-04-29T04:34:00.632Z,66.90
2023-04-29T04:36:34.248Z,67.00
2023-04-29T04:39:02.638Z,67.00
2023-04-29T04:41:32.313Z,66.90
2023-04-29T04:44:02.211Z,66.80
2023-04-29T04:46:43.859Z,66.80
2023-04-29T04:49:19.337Z,66.90
2023-04-29T04:51:53.751Z,66.80
2023-04-29T04:54:22.300Z,67.00
2023-04-29T04:56:54.572Z,67.10
2023-04-29T04:59:23.191Z,67.20
2023-04-29T05:01:51.662Z,67.20
2023-04-29T05:04:20.679Z,67.30
2023-04-29T05:06:49.475Z,67.30
2023-04-29T05:09:21.972Z,67.30
2023-04-29T05:11:50.352Z,67.40
2023-04-29T05:14:20.187Z,67.40
2023-04-29T05:16:48.650Z,67.20
2023-04-29T05:19:17.063Z,67.30
2023-04-29T05:21:46.799Z,67.20
2023-04-29T05:24:15.275Z,67.10
2023-04-29T05:26:45.190Z,67.20
2023-04-29T05:29:13.674Z,67.10
2023-04-29T05:31:52.245Z,67.00
2023-04-29T05:34:21.353Z,67.10
2023-04-29T05:36:49.724Z,67.10
2023-04-29T05:39:18.845Z,67.20
2023-04-29T05:41:52.976Z,67.20
2023-04-29T05:44:34.795Z,67.40
2023-04-29T05:47:03.407Z,67.20
2023-04-29T05:49:32.113Z,67.10
2023-04-29T05:52:04.191Z,67.00
2023-04-29T05:54:33.515Z,67.00
2023-04-29T05:57:04.166Z,67.10
2023-04-29T05:59:33.114Z,67.20
2023-04-29T06:02:05.938Z,67.20
2023-04-29T06:04:36.417Z,67.20
2023-04-29T06:07:22.592Z,67.20
2023-04-29T06:09:57.062Z,67.00
2023-04-29T06:12:28.998Z,67.10
2023-04-29T06:14:59.815Z,67.20
2023-04-29T06:17:29.456Z,67.20
2023-04-29T06:19:57.931Z,67.30
2023-04-29T06:22:26.680Z,67.30
2023-04-29T06:24:59.510Z,67.30
2023-04-29T06:27:39.145Z,67.30
2023-04-29T06:30:09.569Z,67.40
2023-04-29T06:32:39.908Z,67.30
2023-04-29T06:35:09.781Z,67.30
2023-04-29T06:37:58.379Z,67.20
2023-04-29T06:40:36.026Z,67.10
2023-04-29T06:43:05.869Z,67.00
2023-04-29T06:45:37.057Z,67.10
2023-04-29T06:48:10.924Z,67.10
2023-04-29T06:50:54.390Z,67.10
2023-04-29T06:53:24.538Z,67.20
2023-04-29T06:55:53.308Z,67.20
2023-04-29T06:58:23.905Z,67.10
2023-04-29T07:00:52.737Z,67.10
2023-04-29T07:03:24.138Z,67.10
2023-04-29T07:05:52.676Z,67.10
2023-04-29T07:08:21.140Z,67.10
2023-04-29T07:10:56.541Z,67.10
2023-04-29T07:13:27.199Z,67.30
2023-04-29T07:15:55.699Z,67.20
2023-04-29T07:18:24.058Z,67.10
2023-04-29T07:20:53.022Z,67.10
2023-04-29T07:23:22.008Z,67.00
2023-04-29T07:25:50.457Z,67.10
2023-04-29T07:28:18.928Z,67.00
2023-04-29T07:30:49.269Z,67.00
2023-04-29T07:33:18.034Z,67.00
2023-04-29T07:35:47.355Z,66.90
2023-04-29T07:38:16.470Z,66.90
2023-04-29T07:40:45.056Z,67.00
2023-04-29T07:43:13.773Z,67.10
2023-04-29T07:45:42.169Z,67.10
2023-04-29T07:48:12.058Z,67.10
2023-04-29T07:50:40.441Z,67.20
2023-04-29T07:53:08.833Z,67.20
2023-04-29T07:55:38.930Z,67.30
2023-04-29T07:58:08.142Z,67.40
2023-04-29T08:00:36.805Z,67.30
2023-04-29T08:03:05.378Z,67.30
2023-04-29T08:05:36.620Z,67.30
2023-04-29T08:08:05.655Z,67.40
2023-04-29T08:10:36.677Z,68.10
2023-04-29T08:13:05.395Z,67.20
2023-04-29T08:15:33.966Z,67.20
2023-04-29T08:18:02.356Z,67.20
2023-04-29T08:20:30.720Z,67.40
2023-04-29T08:23:02.100Z,67.50
2023-04-29T08:25:30.685Z,67.70
2023-04-29T08:27:59.417Z,67.50
2023-04-29T08:30:28.441Z,67.60
2023-04-29T08:32:56.833Z,67.50
2023-04-29T08:35:25.413Z,67.70
2023-04-29T08:37:55.340Z,67.80
2023-04-29T08:40:25.232Z,67.80
2023-04-29T08:42:56.005Z,67.80
2023-04-29T08:45:26.509Z,67.90
2023-04-29T08:47:57.490Z,67.90
2023-04-29T08:50:26.148Z,68.00
2023-04-29T08:52:54.497Z,68.10
2023-04-29T08:55:24.942Z,68.00
2023-04-29T08:57:56.862Z,67.90
2023-04-29T09:00:26.308Z,67.90
2023-04-29T09:02:58.138Z,67.90
2023-04-29T09:05:27.672Z,67.90
2023-04-29T09:07:59.702Z,67.90
2023-04-29T09:10:29.810Z,67.90
2023-04-29T09:12:58.700Z,68.00
2023-04-29T09:15:27.087Z,68.00
2023-04-29T09:17:55.707Z,68.10
2023-04-29T09:20:31.605Z,68.00
2023-04-29T09:23:03.611Z,68.30
2023-04-29T09:25:34.503Z,68.30
2023-04-29T09:28:17.501Z,69.10
2023-04-29T09:30:50.828Z,68.30
2023-04-29T09:33:19.203Z,68.20
2023-04-29T09:35:48.746Z,68.10
2023-04-29T09:38:18.747Z,68.10
2023-04-29T09:40:58.783Z,68.20
2023-04-29T09:43:28.528Z,68.20
2023-04-29T09:45:56.970Z,68.20
2023-04-29T09:48:35.509Z,68.30
2023-04-29T09:51:04.481Z,68.60
2023-04-29T09:53:33.405Z,68.60
2023-04-29T09:56:05.333Z,68.70
2023-04-29T09:58:37.669Z,69.00
2023-04-29T10:01:07.787Z,69.10
2023-04-29T10:03:39.259Z,69.10
2023-04-29T10:06:09.192Z,69.90
2023-04-29T10:08:37.710Z,69.10
2023-04-29T10:11:07.649Z,69.30
2023-04-29T10:13:38.819Z,69.10
2023-04-29T10:16:19.178Z,69.00
2023-04-29T10:18:55.217Z,69.10
2023-04-29T10:21:30.004Z,68.90
2023-04-29T10:24:00.042Z,68.90
2023-04-29T10:26:32.077Z,69.00
2023-04-29T10:29:02.181Z,69.20
2023-04-29T10:31:31.241Z,69.00
2023-04-29T10:34:01.684Z,69.00
2023-04-29T10:36:32.085Z,69.00
2023-04-29T10:39:06.045Z,69.00
2023-04-29T10:41:45.819Z,68.80
2023-04-29T10:44:14.658Z,68.80
2023-04-29T10:46:43.010Z,68.70
2023-04-29T10:49:12.429Z,68.60
2023-04-29T10:51:43.793Z,68.50
2023-04-29T10:54:15.309Z,68.20
2023-04-29T10:56:50.007Z,68.10
2023-04-29T10:59:22.866Z,68.10
2023-04-29T11:01:52.427Z,68.30
2023-04-29T11:04:22.233Z,68.30
2023-04-29T11:06:54.852Z,68.20
2023-04-29T11:09:27.868Z,68.40
2023-04-29T11:12:03.148Z,68.20
2023-04-29T11:14:37.882Z,68.20
2023-04-29T11:17:09.953Z,68.10
2023-04-29T11:19:44.986Z,67.80
2023-04-29T11:22:26.231Z,67.90
2023-04-29T11:24:57.088Z,68.60
2023-04-29T11:27:31.859Z,67.50
2023-04-29T11:30:05.497Z,67.60
2023-04-29T11:32:35.964Z,67.50
2023-04-29T11:35:12.163Z,67.30
2023-04-29T11:37:42.146Z,66.80
2023-04-29T11:40:13.142Z,66.70
2023-04-29T11:42:46.963Z,67.70
2023-04-29T11:45:16.123Z,66.80
2023-04-29T11:47:46.500Z,66.70
2023-04-29T11:50:19.990Z,66.70
2023-04-29T11:52:50.446Z,66.20
2023-04-29T11:55:19.745Z,66.10
2023-04-29T11:57:52.450Z,66.10
2023-04-29T12:00:21.543Z,66.10
2023-04-29T12:02:50.209Z,65.80
2023-04-29T12:05:19.521Z,65.70
2023-04-29T12:07:50.720Z,65.80
2023-04-29T12:10:19.305Z,65.50
2023-04-29T12:12:49.655Z,65.40
2023-04-29T12:15:18.322Z,65.30
2023-04-29T12:17:47.467Z,65.30
2023-04-29T12:20:16.383Z,65.10
2023-04-29T12:22:45.057Z,65.10
2023-04-29T12:25:14.957Z,65.20
2023-04-29T12:27:43.760Z,65.10
2023-04-29T12:30:14.365Z,65.00
2023-04-29T12:32:42.778Z,64.90
2023-04-29T12:35:17.865Z,64.60
2023-04-29T12:37:50.847Z,64.50
2023-04-29T12:40:20.807Z,64.70
2023-04-29T12:42:49.977Z,64.50
2023-04-29T12:45:32.366Z,64.40
2023-04-29T12:48:03.213Z,64.00
2023-04-29T12:50:35.490Z,64.00
2023-04-29T12:53:04.947Z,64.10
2023-04-29T12:55:35.504Z,64.00
2023-04-29T12:58:04.639Z,64.00
2023-04-29T13:00:37.394Z,64.00
2023-04-29T13:03:06.390Z,64.00
2023-04-29T13:05:35.085Z,64.00
2023-04-29T13:08:05.657Z,64.10
2023-04-29T13:10:34.455Z,63.80
2023-04-29T13:13:02.843Z,63.70
2023-04-29T13:15:33.085Z,63.40
2023-04-29T13:18:03.145Z,63.00
2023-04-29T13:20:32.513Z,62.80
2023-04-29T13:23:01.001Z,62.90
2023-04-29T13:25:29.370Z,62.90
2023-04-29T13:27:57.814Z,62.90
2023-04-29T13:30:26.365Z,62.90
2023-04-29T13:32:58.738Z,62.80
2023-04-29T13:35:35.948Z,62.80
2023-04-29T13:38:04.347Z,62.90
2023-04-29T13:40:38.215Z,62.80
2023-04-29T13:43:09.506Z,62.70
2023-04-29T13:45:41.592Z,62.50
2023-04-29T13:48:22.893Z,62.30
2023-04-29T13:54:17.403Z,62.10
2023-04-29T13:59:36.165Z,62.90
2023-04-29T14:02:15.009Z,62.10
2023-04-29T14:04:30.735Z,62.10
2023-04-29T14:07:00.845Z,62.10
2023-04-29T14:09:29.336Z,62.10
2023-04-29T14:11:57.699Z,62.20
2023-04-29T14:14:26.205Z,62.10
2023-04-29T14:16:54.703Z,62.10
2023-04-29T14:19:23.052Z,62.10
2023-04-29T14:21:51.989Z,62.00
2023-04-29T14:24:22.682Z,61.90
2023-04-29T14:26:52.262Z,62.00
2023-04-29T14:29:20.701Z,61.80
2023-04-29T14:31:49.159Z,61.90
2023-04-29T14:34:19.415Z,62.00
2023-04-29T14:36:48.095Z,62.00
2023-04-29T14:39:16.523Z,62.00
2023-04-29T14:41:46.829Z,62.10
2023-04-29T14:44:15.489Z,62.10
2023-04-29T14:46:44.119Z,62.20
2023-04-29T14:49:12.859Z,61.90
2023-04-29T14:51:41.237Z,61.60
2023-04-29T14:54:11.225Z,61.60
2023-04-29T14:56:39.698Z,61.60
2023-04-29T14:59:09.514Z,61.40
2023-04-29T15:01:39.788Z,62.20
2023-04-29T15:04:08.256Z,61.20
2023-04-29T15:06:36.969Z,61.20
2023-04-29T15:09:06.061Z,61.30
2023-04-29T15:11:34.469Z,61.30
2023-04-29T15:14:02.853Z,61.30
2023-04-29T15:16:33.180Z,61.40
2023-04-29T15:19:01.840Z,61.40
2023-04-29T15:21:30.261Z,61.40
2023-04-29T15:23:58.581Z,61.20
2023-04-29T15:26:28.607Z,60.90
2023-04-29T15:28:57.035Z,60.50
2023-04-29T15:31:26.195Z,60.60
2023-04-29T15:33:57.019Z,60.60
2023-04-29T15:36:30.947Z,60.60
2023-04-29T15:38:59.589Z,60.30
2023-04-29T15:41:28.284Z,60.20
2023-04-29T15:43:58.480Z,59.80
2023-04-29T15:46:28.452Z,59.80
2023-04-29T15:48:58.272Z,59.80
2023-04-29T15:51:26.636Z,59.60
2023-04-29T15:53:55.124Z,59.80
2023-04-29T15:56:23.858Z,59.80
2023-04-29T15:58:52.648Z,59.80
2023-04-29T16:01:21.258Z,60.30
2023-04-29T16:03:50.004Z,59.70
2023-04-29T16:06:20.767Z,59.40
2023-04-29T16:08:50.213Z,59.20
2023-04-29T16:11:18.920Z,59.20
2023-04-29T16:13:47.427Z,59.20
2023-04-29T16:16:15.990Z,59.20
2023-04-29T16:18:44.414Z,59.20
2023-04-29T16:21:13.614Z,59.20
2023-04-29T16:23:43.659Z,59.10
2023-04-29T16:26:12.482Z,59.00
2023-04-29T16:28:40.830Z,59.70
2023-04-29T16:31:09.240Z,59.10
2023-04-29T16:33:37.892Z,59.00
2023-04-29T16:36:07.128Z,58.90
2023-04-29T16:38:35.823Z,58.90
2023-04-29T16:41:06.620Z,59.00
2023-04-29T16:43:35.291Z,58.90
2023-04-29T16:46:03.847Z,58.90
2023-04-29T16:48:32.239Z,59.00
2023-04-29T16:51:01.365Z,58.90
2023-04-29T16:53:30.049Z,58.80
2023-04-29T16:55:58.785Z,58.80
2023-04-29T16:58:28.909Z,59.50
2023-04-29T17:00:57.741Z,58.80
2023-04-29T17:03:26.310Z,58.90
2023-04-29T17:05:57.837Z,58.90
2023-04-29T17:08:26.234Z,59.00
2023-04-29T17:10:54.720Z,59.00
2023-04-29T17:13:23.727Z,59.10
2023-04-29T17:15:53.541Z,59.20
2023-04-29T17:18:22.067Z,59.10
2023-04-29T17:20:51.195Z,59.20
2023-04-29T17:23:19.772Z,59.20
2023-04-29T17:25:48.197Z,59.30
2023-04-29T17:28:16.941Z,59.30
2023-04-29T17:30:45.264Z,59.30
2023-04-29T17:33:17.397Z,59.20
2023-04-29T17:35:46.236Z,59.10
2023-04-29T17:38:14.812Z,59.20
2023-04-29T17:40:43.188Z,59.20
2023-04-29T17:43:11.767Z,59.20
2023-04-29T17:45:41.963Z,59.30
2023-04-29T17:48:10.433Z,59.30
2023-04-29T17:50:41.062Z,59.30
2023-04-29T17:53:09.453Z,59.30
2023-04-29T17:55:40.100Z,59.40
2023-04-29T17:58:08.591Z,59.40
2023-04-29T18:00:37.332Z,59.40
2023-04-29T18:03:07.200Z,59.30
2023-04-29T18:05:35.631Z,59.30
2023-04-29T18:08:06.025Z,59.30
2023-04-29T18:10:34.431Z,59.20
2023-04-29T18:13:03.430Z,59.20
2023-04-29T18:15:31.952Z,59.00
2023-04-29T18:18:00.508Z,59.00
2023-04-29T18:20:28.911Z,59.00
2023-04-29T18:22:57.246Z,59.00
2023-04-29T18:25:27.143Z,59.10
2023-04-29T18:28:07.779Z,59.00
2023-04-29T18:30:46.103Z,59.00
2023-04-29T18:33:15.464Z,59.10
2023-04-29T18:35:44.025Z,59.10
2023-04-29T18:38:16.238Z,59.20
2023-04-29T18:40:46.340Z,59.20
2023-04-29T18:43:18.058Z,59.20
2023-04-29T18:45:46.746Z,59.30
2023-04-29T18:48:15.266Z,59.20
2023-04-29T18:50:44.506Z,59.10
2023-04-29T18:53:13.487Z,59.10
2023-04-29T18:55:42.150Z,59.00
2023-04-29T18:58:12.059Z,59.10
2023-04-29T19:00:40.972Z,59.10
2023-04-29T19:03:09.850Z,59.40
2023-04-29T19:05:38.439Z,59.30
2023-04-29T19:08:08.239Z,59.40
2023-04-29T19:10:36.583Z,59.40
2023-04-29T19:13:05.773Z,59.40
2023-04-29T19:15:36.078Z,59.40
2023-04-29T19:18:04.978Z,59.40
2023-04-29T19:20:33.852Z,59.40
2023-04-29T19:23:02.336Z,59.40
2023-04-29T19:25:31.972Z,59.30
2023-04-29T19:28:00.467Z,59.30
2023-04-29T19:30:29.014Z,59.30
2023-04-29T19:32:58.832Z,59.30
2023-04-29T19:35:27.798Z,59.30
2023-04-29T19:37:56.479Z,59.20
2023-04-29T19:40:24.908Z,59.20
2023-04-29T19:42:53.747Z,59.20
2023-04-29T19:45:22.258Z,59.20
2023-04-29T19:47:50.886Z,59.10
2023-04-29T19:50:21.344Z,59.10
2023-04-29T19:52:50.309Z,59.20
2023-04-29T19:55:18.914Z,59.10
2023-04-29T19:57:47.325Z,59.10
2023-04-29T20:00:17.371Z,59.10
2023-04-29T20:02:48.563Z,59.10
2023-04-29T20:05:16.967Z,59.00
2023-04-29T20:07:49.840Z,59.00
2023-04-29T20:10:18.242Z,59.00
2023-04-29T20:12:46.702Z,58.80
2023-04-29T20:15:15.031Z,58.80
2023-04-29T20:17:43.681Z,58.70
2023-04-29T20:20:12.828Z,58.60
2023-04-29T20:22:41.258Z,58.50
2023-04-29T20:25:12.698Z,58.30
2023-04-29T20:27:41.414Z,58.20
2023-04-29T20:30:10.969Z,58.10
2023-04-29T20:32:39.542Z,58.10
2023-04-29T20:35:09.344Z,58.10
2023-04-29T20:37:38.286Z,58.10
2023-04-29T20:40:09.844Z,57.90
2023-04-29T20:42:39.878Z,57.90
2023-04-29T20:45:10.609Z,57.90
2023-04-29T20:47:39.667Z,57.70
2023-04-29T20:50:09.581Z,57.70
2023-04-29T20:52:38.589Z,57.50
2023-04-29T20:55:08.173Z,57.50
2023-04-29T20:57:37.358Z,57.40
2023-04-29T21:00:09.654Z,57.30
2023-04-29T21:02:38.632Z,57.30
2023-04-29T21:05:09.906Z,57.20
2023-04-29T21:07:38.629Z,57.20
2023-04-29T21:10:07.955Z,57.30
2023-04-29T21:12:36.799Z,57.30
2023-04-29T21:15:08.867Z,57.30
2023-04-29T21:17:37.523Z,57.20
2023-04-29T21:20:08.800Z,57.30
2023-04-29T21:22:37.249Z,57.30
2023-04-29T21:25:06.430Z,57.40
2023-04-29T21:27:37.433Z,57.40
2023-04-29T21:30:09.477Z,57.40
2023-04-29T21:32:38.146Z,57.40
2023-04-29T21:35:07.929Z,57.40
2023-04-29T21:37:36.340Z,58.10
2023-04-29T21:40:05.508Z,57.50
2023-04-29T21:42:34.780Z,57.50
2023-04-29T21:45:03.871Z,57.50
2023-04-29T21:47:33.955Z,57.50
2023-04-29T21:50:03.131Z,57.50
2023-04-29T21:52:34.991Z,58.10
2023-04-29T21:55:03.773Z,57.50
2023-04-29T21:57:43.704Z,57.50
2023-04-29T22:00:33.486Z,57.50
2023-04-29T22:03:04.657Z,57.50
2023-04-29T22:05:33.572Z,57.50
2023-04-29T22:08:03.116Z,57.40
2023-04-29T22:10:32.114Z,57.40
2023-04-29T22:13:00.932Z,57.40
2023-04-29T22:15:29.993Z,57.40
2023-04-29T22:17:59.145Z,57.40
2023-04-29T22:20:29.319Z,57.30
2023-04-29T22:22:58.072Z,57.20
2023-04-29T22:25:27.047Z,57.10
2023-04-29T22:27:56.105Z,57.10
2023-04-29T22:30:24.875Z,57.10
2023-04-29T22:32:53.829Z,57.20
2023-04-29T22:35:23.194Z,57.30
2023-04-29T22:37:54.136Z,57.10
2023-04-29T22:40:22.866Z,57.10
2023-04-29T22:42:51.657Z,57.10
2023-04-29T22:45:20.408Z,57.10
2023-04-29T22:47:49.155Z,57.10
2023-04-29T22:50:18.366Z,57.10
2023-04-29T22:52:47.287Z,57.00
2023-04-29T22:55:17.512Z,57.10
2023-04-29T22:57:46.049Z,57.00
2023-04-29T23:00:15.836Z,57.20
2023-04-29T23:02:45.473Z,57.20
2023-04-29T23:05:14.380Z,57.10
2023-04-29T23:07:42.958Z,57.20
2023-04-29T23:10:12.407Z,57.20
2023-04-29T23:12:42.364Z,57.70
2023-04-29T23:15:11.069Z,57.10
2023-04-29T23:17:39.942Z,57.10
2023-04-29T23:20:10.204Z,57.80
2023-04-29T23:22:38.961Z,57.40
2023-04-29T23:25:08.537Z,57.50
2023-04-29T23:27:37.852Z,57.50
2023-04-29T23:30:10.425Z,57.50
2023-04-29T23:32:39.579Z,57.60
2023-04-29T23:35:11.509Z,57.70
2023-04-29T23:37:42.632Z,57.80
2023-04-29T23:40:12.260Z,57.80
2023-04-29T23:42:40.782Z,57.80
2023-04-29T23:45:11.764Z,57.70
2023-04-29T23:47:40.480Z,57.70
2023-04-29T23:50:10.572Z,57.70
2023-04-29T23:52:39.297Z,57.70
2023-04-29T23:55:10.125Z,57.80
2023-04-29T23:57:39.049Z,57.80
